Time,TemperatureF,DewpointF,PressureIn,WindDirection,WindDirectionDegrees,WindSpeedMPH,WindSpeedGustMPH,Humidity,HourlyPrecipIn,Conditions,Clouds,dailyrainin,SoftwareType,DateUTC
2013-10-24 00:02:00,43.5,33.3,29.75,ENE,58,0.0,3.0,67,0.00,,,0.00,Wunderground v.1.15,2013-10-24 05:02:00,
2013-10-24 00:08:00,43.5,33.6,29.75,NW,326,0.0,3.0,68,0.00,,,0.00,Wunderground v.1.15,2013-10-24 05:08:00,
2013-10-24 00:13:00,43.5,33.6,29.75,North,4,0.0,0.0,68,0.00,,,0.00,Wunderground v.1.15,2013-10-24 05:13:00,
2013-10-24 00:18:00,43.6,33.4,29.75,NNE,13,0.0,3.0,67,0.00,,,0.00,Wunderground v.1.15,2013-10-24 05:18:00,
2013-10-24 00:23:00,43.6,34.1,29.75,NNW,342,0.0,1.0,69,0.00,,,0.00,Wunderground v.1.15,2013-10-24 05:23:00,
2013-10-24 00:29:00,43.6,33.0,29.75,NNE,14,2.0,2.0,66,0.00,,,0.00,Wunderground v.1.15,2013-10-24 05:29:00,
2013-10-24 00:34:00,43.6,32.6,29.75,NNW,347,0.0,0.0,65,0.00,,,0.00,Wunderground v.1.15,2013-10-24 05:34:00,
2013-10-24 00:39:00,43.6,32.6,29.75,NNW,347,0.0,0.0,65,0.00,,,0.00,Wunderground v.1.15,2013-10-24 05:39:00,
2013-10-24 00:45:00,43.5,32.9,29.75,North,359,0.0,0.0,66,0.00,,,0.00,Wunderground v.1.15,2013-10-24 05:45:00,
2013-10-24 00:50:00,43.4,34.3,29.75,North,360,0.0,0.0,70,0.00,,,0.00,Wunderground v.1.15,2013-10-24 05:50:00,
2013-10-24 00:55:00,43.3,33.4,29.75,NNW,347,0.0,1.0,68,0.00,,,0.00,Wunderground v.1.15,2013-10-24 05:55:00,
2013-10-24 01:01:00,43.5,32.1,29.75,North,8,3.0,3.0,64,0.00,,,0.00,Wunderground v.1.15,2013-10-24 06:01:00,
2013-10-24 01:06:00,43.7,31.9,29.75,North,360,2.0,3.0,63,0.00,,,0.00,Wunderground v.1.15,2013-10-24 06:06:00,
2013-10-24 01:11:00,43.7,31.5,29.74,NE,56,2.0,2.0,62,0.00,,,0.00,Wunderground v.1.15,2013-10-24 06:11:00,
2013-10-24 01:17:00,43.7,31.5,29.74,NNW,337,0.0,2.0,62,0.00,,,0.00,Wunderground v.1.15,2013-10-24 06:17:00,
2013-10-24 01:22:00,43.7,31.9,29.74,NNW,329,0.0,2.0,63,0.00,,,0.00,Wunderground v.1.15,2013-10-24 06:22:00,
2013-10-24 01:27:00,43.7,33.5,29.74,NE,41,0.0,2.0,67,0.00,,,0.00,Wunderground v.1.15,2013-10-24 06:27:00,
2013-10-24 01:33:00,43.6,33.4,29.74,ENE,65,0.0,0.0,67,0.00,,,0.00,Wunderground v.1.15,2013-10-24 06:33:00,
2013-10-24 01:38:00,43.6,33.7,29.75,North,8,0.0,2.0,68,0.00,,,0.00,Wunderground v.1.15,2013-10-24 06:38:00,
2013-10-24 01:43:00,43.5,34.0,29.74,ENE,66,0.0,0.0,69,0.00,,,0.00,Wunderground v.1.15,2013-10-24 06:43:00,
2013-10-24 01:49:00,43.5,33.3,29.75,NNE,32,3.0,3.0,67,0.00,,,0.00,Wunderground v.1.15,2013-10-24 06:49:00,
2013-10-24 01:54:00,43.5,34.0,29.75,North,354,0.0,2.0,69,0.00,,,0.00,Wunderground v.1.15,2013-10-24 06:54:00,
2013-10-24 01:59:00,43.4,33.5,29.75,NNE,26,0.0,2.0,68,0.00,,,0.00,Wunderground v.1.15,2013-10-24 06:59:00,
2013-10-24 02:04:00,43.4,34.3,29.74,ENE,66,0.0,2.0,70,0.00,,,0.00,Wunderground v.1.15,2013-10-24 07:04:00,
2013-10-24 02:09:00,43.4,34.6,29.74,ESE,105,0.0,2.0,71,0.00,,,0.00,Wunderground v.1.15,2013-10-24 07:09:00,
2013-10-24 02:14:00,43.3,34.5,29.74,NNE,20,1.0,3.0,71,0.00,,,0.00,Wunderground v.1.15,2013-10-24 07:14:00,
2013-10-24 02:19:00,43.3,34.5,29.75,NE,50,3.0,4.0,71,0.00,,,0.00,Wunderground v.1.15,2013-10-24 07:19:00,
2013-10-24 02:24:00,43.3,35.2,29.74,NE,56,0.0,2.0,73,0.00,,,0.00,Wunderground v.1.15,2013-10-24 07:24:00,
2013-10-24 02:29:00,43.3,35.6,29.74,ENE,62,1.0,2.0,74,0.00,,,0.00,Wunderground v.1.15,2013-10-24 07:29:00,
2013-10-24 02:34:00,43.2,35.8,29.74,NNE,23,1.0,4.0,75,0.00,,,0.00,Wunderground v.1.15,2013-10-24 07:34:00,
2013-10-24 02:39:00,43.1,35.4,29.74,NNE,14,1.0,4.0,74,0.00,,,0.00,Wunderground v.1.15,2013-10-24 07:39:00,
2013-10-24 02:44:00,43.1,35.0,29.75,NE,46,3.0,5.0,73,0.00,,,0.00,Wunderground v.1.15,2013-10-24 07:44:00,
2013-10-24 02:49:00,43.0,34.9,29.75,NNE,23,0.0,6.0,73,0.00,,,0.00,Wunderground v.1.15,2013-10-24 07:49:00,
2013-10-24 02:54:00,42.8,34.7,29.75,NNE,31,3.0,6.0,73,0.00,,,0.00,Wunderground v.1.15,2013-10-24 07:54:00,
2013-10-24 02:59:00,42.6,34.5,29.75,NNW,343,3.0,6.0,73,0.00,,,0.00,Wunderground v.1.15,2013-10-24 07:59:00,
2013-10-24 03:04:00,42.5,34.8,29.75,NE,39,3.0,6.0,74,0.00,,,0.00,Wunderground v.1.15,2013-10-24 08:04:00,
2013-10-24 03:09:00,42.3,34.6,29.75,NE,46,4.0,7.0,74,0.00,,,0.00,Wunderground v.1.15,2013-10-24 08:09:00,
2013-10-24 03:14:00,42.3,34.6,29.75,NNW,345,2.0,6.0,74,0.00,,,0.00,Wunderground v.1.15,2013-10-24 08:14:00,
2013-10-24 03:19:00,42.2,33.8,29.75,North,3,5.0,7.0,72,0.00,,,0.00,Wunderground v.1.15,2013-10-24 08:19:00,
2013-10-24 03:24:00,42.1,34.1,29.75,NNE,19,0.0,5.0,73,0.00,,,0.00,Wunderground v.1.15,2013-10-24 08:24:00,
2013-10-24 03:29:00,42.1,33.7,29.75,NW,304,3.0,5.0,72,0.00,,,0.00,Wunderground v.1.15,2013-10-24 08:29:00,
2013-10-24 03:34:00,42.1,34.1,29.75,NE,53,3.0,3.0,73,0.00,,,0.00,Wunderground v.1.15,2013-10-24 08:34:00,
2013-10-24 03:40:00,42.1,33.7,29.75,NNW,335,0.0,1.0,72,0.00,,,0.00,Wunderground v.1.15,2013-10-24 08:40:00,
2013-10-24 03:45:00,42.0,33.6,29.75,ENE,60,0.0,3.0,72,0.00,,,0.00,Wunderground v.1.15,2013-10-24 08:45:00,
2013-10-24 03:50:00,41.9,33.5,29.75,East,84,1.0,3.0,72,0.00,,,0.00,Wunderground v.1.15,2013-10-24 08:50:00,
2013-10-24 03:55:00,41.8,33.4,29.75,ENE,58,2.0,6.0,72,0.00,,,0.00,Wunderground v.1.15,2013-10-24 08:55:00,
2013-10-24 04:00:00,41.7,33.3,29.75,East,87,0.0,2.0,72,0.00,,,0.00,Wunderground v.1.15,2013-10-24 09:00:00,
2013-10-24 04:05:00,41.6,33.2,29.75,NNE,15,2.0,4.0,72,0.00,,,0.00,Wunderground v.1.15,2013-10-24 09:05:00,
2013-10-24 04:10:00,41.7,33.7,29.75,NNW,348,1.0,1.0,73,0.00,,,0.00,Wunderground v.1.15,2013-10-24 09:10:00,
2013-10-24 04:15:00,41.7,33.3,29.75,North,9,2.0,4.0,72,0.00,,,0.00,Wunderground v.1.15,2013-10-24 09:15:00,
2013-10-24 04:20:00,41.6,33.6,29.75,NNW,340,1.0,2.0,73,0.00,,,0.00,Wunderground v.1.15,2013-10-24 09:20:00,
2013-10-24 04:25:00,41.5,33.5,29.75,NNE,14,3.0,4.0,73,0.00,,,0.00,Wunderground v.1.15,2013-10-24 09:25:00,
2013-10-24 04:30:00,41.4,33.4,29.76,North,1,5.0,5.0,73,0.00,,,0.00,Wunderground v.1.15,2013-10-24 09:30:00,
2013-10-24 04:35:00,41.3,33.6,29.76,North,6,0.0,6.0,74,0.00,,,0.00,Wunderground v.1.15,2013-10-24 09:35:00,
2013-10-24 04:40:00,41.2,33.2,29.76,NE,37,2.0,5.0,73,0.00,,,0.00,Wunderground v.1.15,2013-10-24 09:40:00,
2013-10-24 04:45:00,41.2,33.9,29.76,NNE,13,3.0,5.0,75,0.00,,,0.00,Wunderground v.1.15,2013-10-24 09:45:00,
2013-10-24 04:50:00,41.2,33.9,29.76,NW,309,4.0,4.0,75,0.00,,,0.00,Wunderground v.1.15,2013-10-24 09:50:00,
2013-10-24 04:55:00,41.2,33.9,29.77,NE,53,4.0,5.0,75,0.00,,,0.00,Wunderground v.1.15,2013-10-24 09:55:00,
2013-10-24 05:00:00,41.2,33.9,29.77,NNW,335,2.0,3.0,75,0.00,,,0.00,Wunderground v.1.15,2013-10-24 10:00:00,
2013-10-24 05:05:00,41.3,34.0,29.77,NNW,348,0.0,5.0,75,0.00,,,0.00,Wunderground v.1.15,2013-10-24 10:05:00,
2013-10-24 05:10:00,41.3,34.0,29.77,ENE,65,0.0,1.0,75,0.00,,,0.00,Wunderground v.1.15,2013-10-24 10:10:00,
2013-10-24 05:15:00,41.2,33.9,29.77,NE,40,2.0,3.0,75,0.00,,,0.00,Wunderground v.1.15,2013-10-24 10:15:00,
2013-10-24 05:20:00,41.2,33.5,29.77,NE,44,0.0,1.0,74,0.00,,,0.00,Wunderground v.1.15,2013-10-24 10:20:00,
2013-10-24 05:25:00,41.2,33.5,29.77,East,79,1.0,3.0,74,0.00,,,0.00,Wunderground v.1.15,2013-10-24 10:25:00,
2013-10-24 05:30:00,41.2,33.5,29.77,SE,143,0.0,0.0,74,0.00,,,0.00,Wunderground v.1.15,2013-10-24 10:30:00,
2013-10-24 05:35:00,41.2,33.9,29.77,ENE,72,0.0,2.0,75,0.00,,,0.00,Wunderground v.1.15,2013-10-24 10:35:00,
2013-10-24 05:40:00,41.2,33.9,29.77,NE,51,0.0,0.0,75,0.00,,,0.00,Wunderground v.1.15,2013-10-24 10:40:00,
2013-10-24 05:45:00,41.3,34.0,29.77,NNE,32,0.0,3.0,75,0.00,,,0.00,Wunderground v.1.15,2013-10-24 10:45:00,
2013-10-24 05:50:00,41.3,34.0,29.78,NNE,20,0.0,2.0,75,0.00,,,0.00,Wunderground v.1.15,2013-10-24 10:50:00,
2013-10-24 05:55:00,41.4,34.1,29.77,ENE,69,0.0,2.0,75,0.00,,,0.00,Wunderground v.1.15,2013-10-24 10:55:00,
2013-10-24 06:00:00,41.3,33.6,29.77,North,360,1.0,2.0,74,0.00,,,0.00,Wunderground v.1.15,2013-10-24 11:00:00,
2013-10-24 06:05:00,41.4,33.7,29.78,North,359,0.0,2.0,74,0.00,,,0.00,Wunderground v.1.15,2013-10-24 11:05:00,
2013-10-24 06:11:00,41.3,33.6,29.77,ENE,75,0.0,0.0,74,0.00,,,0.00,Wunderground v.1.15,2013-10-24 11:11:00,
2013-10-24 06:16:00,41.2,33.5,29.77,ENE,69,0.0,0.0,74,0.00,,,0.00,Wunderground v.1.15,2013-10-24 11:16:00,
2013-10-24 06:21:00,41.1,33.8,29.77,ENE,69,0.0,0.0,75,0.00,,,0.00,Wunderground v.1.15,2013-10-24 11:21:00,
2013-10-24 06:26:00,41.0,33.3,29.77,NW,323,0.0,0.0,74,0.00,,,0.00,Wunderground v.1.15,2013-10-24 11:26:00,
2013-10-24 06:31:00,40.9,33.6,29.78,NW,322,0.0,0.0,75,0.00,,,0.00,Wunderground v.1.15,2013-10-24 11:31:00,
2013-10-24 06:36:00,40.8,33.8,29.78,NW,322,0.0,0.0,76,0.00,,,0.00,Wunderground v.1.15,2013-10-24 11:36:00,
2013-10-24 06:41:00,40.6,33.6,29.78,NNW,328,0.0,1.0,76,0.00,,,0.00,Wunderground v.1.15,2013-10-24 11:41:00,
2013-10-24 06:46:00,40.5,34.5,29.78,WSW,250,0.0,1.0,79,0.00,,,0.00,Wunderground v.1.15,2013-10-24 11:46:00,
2013-10-24 06:51:00,40.2,34.2,29.78,WSW,239,0.0,1.0,79,0.00,,,0.00,Wunderground v.1.15,2013-10-24 11:51:00,
2013-10-24 06:56:00,39.9,34.5,29.78,SSE,148,0.0,1.0,81,0.00,,,0.00,Wunderground v.1.15,2013-10-24 11:56:00,
2013-10-24 07:01:00,39.6,34.6,29.79,SSE,162,0.0,0.0,82,0.00,,,0.00,Wunderground v.1.15,2013-10-24 12:01:00,
2013-10-24 07:06:00,39.3,34.6,29.79,SSE,162,0.0,0.0,83,0.00,,,0.00,Wunderground v.1.15,2013-10-24 12:06:00,
2013-10-24 07:11:00,39.1,34.4,29.79,SSE,162,0.0,0.0,83,0.00,,,0.00,Wunderground v.1.15,2013-10-24 12:11:00,
2013-10-24 07:16:00,39.0,34.0,29.79,SSE,162,0.0,0.0,82,0.00,,,0.00,Wunderground v.1.15,2013-10-24 12:16:00,
2013-10-24 07:21:00,38.9,34.5,29.79,SSE,162,0.0,0.0,84,0.00,,,0.00,Wunderground v.1.15,2013-10-24 12:21:00,
2013-10-24 07:26:00,38.8,34.7,29.79,SSW,205,0.0,0.0,85,0.00,,,0.00,Wunderground v.1.15,2013-10-24 12:26:00,
2013-10-24 07:31:00,38.6,34.2,29.79,West,278,0.0,0.0,84,0.00,,,0.00,Wunderground v.1.15,2013-10-24 12:31:00,
2013-10-24 07:36:00,38.8,33.8,29.80,NW,305,0.0,2.0,82,0.00,,,0.00,Wunderground v.1.15,2013-10-24 12:36:00,
2013-10-24 07:41:00,39.5,34.2,29.80,WNW,297,0.0,2.0,81,0.00,,,0.00,Wunderground v.1.15,2013-10-24 12:41:00,
2013-10-24 07:46:00,39.9,33.9,29.80,WNW,291,1.0,4.0,79,0.00,,,0.00,Wunderground v.1.15,2013-10-24 12:46:00,
2013-10-24 07:51:00,40.1,33.5,29.80,NW,322,1.0,5.0,77,0.00,,,0.00,Wunderground v.1.15,2013-10-24 12:51:00,
2013-10-24 07:56:00,40.3,33.7,29.80,NW,318,2.0,5.0,77,0.00,,,0.00,Wunderground v.1.15,2013-10-24 12:56:00,
2013-10-24 08:01:00,40.5,33.5,29.80,NW,326,4.0,6.0,76,0.00,,,0.00,Wunderground v.1.15,2013-10-24 13:01:00,
2013-10-24 08:06:00,40.6,33.6,29.81,NW,316,3.0,6.0,76,0.00,,,0.00,Wunderground v.1.15,2013-10-24 13:06:00,
2013-10-24 08:11:00,40.8,34.1,29.81,NW,321,4.0,6.0,77,0.00,,,0.00,Wunderground v.1.15,2013-10-24 13:11:00,
2013-10-24 08:16:00,40.9,34.2,29.81,NNW,335,3.0,6.0,77,0.00,,,0.00,Wunderground v.1.15,2013-10-24 13:16:00,
2013-10-24 08:21:00,41.1,34.1,29.81,NW,315,4.0,7.0,76,0.00,,,0.00,Wunderground v.1.15,2013-10-24 13:21:00,
2013-10-24 08:26:00,41.0,33.7,29.81,NW,316,4.0,9.0,75,0.00,,,0.00,Wunderground v.1.15,2013-10-24 13:26:00,
2013-10-24 08:31:00,41.1,34.1,29.82,NW,321,6.0,6.0,76,0.00,,,0.00,Wunderground v.1.15,2013-10-24 13:31:00,
2013-10-24 08:36:00,41.3,34.3,29.82,NNW,338,6.0,7.0,76,0.00,,,0.00,Wunderground v.1.15,2013-10-24 13:36:00,
2013-10-24 08:41:00,41.5,34.2,29.83,NNW,347,6.0,6.0,75,0.00,,,0.00,Wunderground v.1.15,2013-10-24 13:41:00,
2013-10-24 08:47:00,41.7,34.0,29.83,NNW,331,6.0,8.0,74,0.00,,,0.00,Wunderground v.1.15,2013-10-24 13:47:00,
2013-10-24 08:52:00,41.6,33.9,29.83,NW,317,6.0,8.0,74,0.00,,,0.00,Wunderground v.1.15,2013-10-24 13:52:00,
2013-10-24 08:57:00,41.6,34.3,29.83,NW,309,4.0,8.0,75,0.00,,,0.00,Wunderground v.1.15,2013-10-24 13:57:00,
2013-10-24 09:02:00,42.3,34.9,29.84,WNW,290,2.0,5.0,75,0.00,,,0.00,Wunderground v.1.15,2013-10-24 14:02:00,
2013-10-24 09:07:00,42.1,34.7,29.84,NNW,342,3.0,8.0,75,0.00,,,0.00,Wunderground v.1.15,2013-10-24 14:07:00,
2013-10-24 09:12:00,42.0,34.6,29.84,West,270,4.0,5.0,75,0.00,,,0.00,Wunderground v.1.15,2013-10-24 14:12:00,
2013-10-24 09:17:00,42.0,34.6,29.84,WNW,288,2.0,6.0,75,0.00,,,0.00,Wunderground v.1.15,2013-10-24 14:17:00,
2013-10-24 09:22:00,41.9,34.6,29.85,WNW,283,5.0,8.0,75,0.00,,,0.00,Wunderground v.1.15,2013-10-24 14:22:00,
2013-10-24 09:27:00,42.0,35.0,29.85,WNW,294,3.0,8.0,76,0.00,,,0.00,Wunderground v.1.15,2013-10-24 14:27:00,
2013-10-24 09:32:00,42.0,35.0,29.85,NW,311,1.0,6.0,76,0.00,,,0.00,Wunderground v.1.15,2013-10-24 14:32:00,
2013-10-24 09:37:00,42.1,35.4,29.85,WSW,242,2.0,6.0,77,0.00,,,0.00,Wunderground v.1.15,2013-10-24 14:37:00,
2013-10-24 09:42:00,42.0,35.3,29.85,West,273,6.0,7.0,77,0.00,,,0.00,Wunderground v.1.15,2013-10-24 14:42:00,
2013-10-24 09:47:00,41.9,35.2,29.85,WNW,298,1.0,7.0,77,0.00,,,0.00,Wunderground v.1.15,2013-10-24 14:47:00,
2013-10-24 09:52:00,42.1,35.4,29.85,WNW,290,6.0,6.0,77,0.00,,,0.00,Wunderground v.1.15,2013-10-24 14:52:00,
2013-10-24 09:58:00,42.0,35.3,29.85,WNW,293,4.0,10.0,77,0.00,,,0.00,Wunderground v.1.15,2013-10-24 14:58:00,
2013-10-24 10:03:00,42.1,35.4,29.85,West,276,4.0,10.0,77,0.00,,,0.00,Wunderground v.1.15,2013-10-24 15:03:00,
2013-10-24 10:08:00,42.1,35.1,29.85,SSW,194,2.0,10.0,76,0.00,,,0.00,Wunderground v.1.15,2013-10-24 15:08:00,
2013-10-24 10:13:00,42.5,35.1,29.85,NW,321,5.0,8.0,75,0.00,,,0.00,Wunderground v.1.15,2013-10-24 15:13:00,
2013-10-24 10:18:00,42.8,35.1,29.86,North,351,3.0,11.0,74,0.00,,,0.00,Wunderground v.1.15,2013-10-24 15:18:00,
2013-10-24 10:23:00,42.6,33.9,29.86,WNW,292,5.0,11.0,71,0.00,,,0.00,Wunderground v.1.15,2013-10-24 15:23:00,
2013-10-24 10:28:00,42.5,33.8,29.86,West,263,4.0,13.0,71,0.00,,,0.00,Wunderground v.1.15,2013-10-24 15:28:00,
2013-10-24 10:33:00,42.3,33.6,29.86,NW,315,8.0,11.0,71,0.00,,,0.00,Wunderground v.1.15,2013-10-24 15:33:00,
2013-10-24 10:38:00,42.1,33.0,29.86,NW,308,3.0,11.0,70,0.00,,,0.00,Wunderground v.1.15,2013-10-24 15:38:00,
2013-10-24 10:43:00,42.0,33.6,29.86,South,190,4.0,9.0,72,0.00,,,0.00,Wunderground v.1.15,2013-10-24 15:43:00,
2013-10-24 10:48:00,41.9,33.9,29.86,WNW,290,3.0,10.0,73,0.00,,,0.00,Wunderground v.1.15,2013-10-24 15:48:00,
2013-10-24 10:53:00,42.1,34.1,29.86,North,8,3.0,11.0,73,0.00,,,0.00,Wunderground v.1.15,2013-10-24 15:53:00,
2013-10-24 10:58:00,42.3,34.3,29.86,NW,311,6.0,12.0,73,0.00,,,0.00,Wunderground v.1.15,2013-10-24 15:58:00,
2013-10-24 11:03:00,42.3,33.9,29.87,NNW,337,6.0,10.0,72,0.00,,,0.00,Wunderground v.1.15,2013-10-24 16:03:00,
2013-10-24 11:08:00,42.3,34.3,29.87,WNW,297,6.0,10.0,73,0.00,,,0.00,Wunderground v.1.15,2013-10-24 16:08:00,
2013-10-24 11:13:00,42.4,34.4,29.87,WNW,297,2.0,8.0,73,0.00,,,0.00,Wunderground v.1.15,2013-10-24 16:13:00,
2013-10-24 11:18:00,42.7,34.6,29.87,WNW,297,4.0,8.0,73,0.00,,,0.00,Wunderground v.1.15,2013-10-24 16:18:00,
2013-10-24 11:23:00,42.8,34.4,29.87,WNW,294,6.0,10.0,72,0.00,,,0.00,Wunderground v.1.15,2013-10-24 16:23:00,
2013-10-24 11:29:00,42.3,34.3,29.87,NW,311,10.0,11.0,73,0.00,,,0.00,Wunderground v.1.15,2013-10-24 16:29:00,
2013-10-24 11:34:00,42.4,34.4,29.87,West,277,1.0,10.0,73,0.00,,,0.00,Wunderground v.1.15,2013-10-24 16:34:00,
2013-10-24 11:39:00,42.4,34.4,29.87,WNW,297,4.0,11.0,73,0.00,,,0.00,Wunderground v.1.15,2013-10-24 16:39:00,
2013-10-24 11:44:00,42.7,34.3,29.87,NW,326,3.0,9.0,72,0.00,,,0.00,Wunderground v.1.15,2013-10-24 16:44:00,
2013-10-24 11:49:00,42.7,34.3,29.87,WSW,242,4.0,10.0,72,0.00,,,0.00,Wunderground v.1.15,2013-10-24 16:49:00,
2013-10-24 11:54:00,42.9,35.2,29.87,WNW,294,2.0,11.0,74,0.00,,,0.00,Wunderground v.1.15,2013-10-24 16:54:00,
2013-10-24 11:59:00,43.5,35.1,29.87,NW,314,6.0,11.0,72,0.00,,,0.00,Wunderground v.1.15,2013-10-24 16:59:00,
2013-10-24 12:04:00,43.6,34.8,29.87,West,262,2.0,11.0,71,0.00,,,0.00,Wunderground v.1.15,2013-10-24 17:04:00,
2013-10-24 12:09:00,43.5,34.7,29.87,NNW,342,3.0,11.0,71,0.00,,,0.00,Wunderground v.1.15,2013-10-24 17:09:00,
2013-10-24 12:14:00,43.5,34.7,29.87,West,278,1.0,9.0,71,0.00,,,0.00,Wunderground v.1.15,2013-10-24 17:14:00,
2013-10-24 12:19:00,43.7,34.9,29.87,WNW,287,3.0,10.0,71,0.00,,,0.00,Wunderground v.1.15,2013-10-24 17:19:00,
2013-10-24 12:24:00,44.1,34.9,29.86,WNW,302,7.0,14.0,70,0.00,,,0.00,Wunderground v.1.15,2013-10-24 17:24:00,
2013-10-24 12:29:00,44.7,34.8,29.86,North,360,1.0,14.0,68,0.00,,,0.00,Wunderground v.1.15,2013-10-24 17:29:00,
2013-10-24 12:34:00,45.4,35.1,29.86,NE,53,5.0,10.0,67,0.00,,,0.00,Wunderground v.1.15,2013-10-24 17:34:00,
2013-10-24 12:39:00,44.8,33.7,29.86,West,273,7.0,11.0,65,0.00,,,0.00,Wunderground v.1.15,2013-10-24 17:39:00,
2013-10-24 12:44:00,44.2,33.6,29.86,WSW,242,6.0,14.0,66,0.00,,,0.00,Wunderground v.1.15,2013-10-24 17:44:00,
2013-10-24 12:49:00,44.4,33.7,29.86,NNW,331,2.0,14.0,66,0.00,,,0.00,Wunderground v.1.15,2013-10-24 17:49:00,
2013-10-24 12:54:00,44.7,33.6,29.86,WNW,297,3.0,9.0,65,0.00,,,0.00,Wunderground v.1.15,2013-10-24 17:54:00,
2013-10-24 12:59:00,44.8,33.4,29.86,NW,304,3.0,9.0,64,0.00,,,0.00,Wunderground v.1.15,2013-10-24 17:59:00,
2013-10-24 13:04:00,44.9,32.7,29.86,North,1,9.0,12.0,62,0.00,,,0.00,Wunderground v.1.15,2013-10-24 18:04:00,
2013-10-24 13:09:00,45.2,32.5,29.86,NW,315,4.0,12.0,61,0.00,,,0.00,Wunderground v.1.15,2013-10-24 18:09:00,
2013-10-24 13:14:00,45.9,32.8,29.86,NW,316,10.0,16.0,60,0.00,,,0.00,Wunderground v.1.15,2013-10-24 18:14:00,
2013-10-24 13:19:00,45.5,32.0,29.85,WNW,300,7.0,16.0,59,0.00,,,0.00,Wunderground v.1.15,2013-10-24 18:19:00,
2013-10-24 13:24:00,45.6,32.1,29.85,WNW,298,7.0,8.0,59,0.00,,,0.00,Wunderground v.1.15,2013-10-24 18:24:00,
2013-10-24 13:29:00,46.0,32.5,29.85,West,263,7.0,13.0,59,0.00,,,0.00,Wunderground v.1.15,2013-10-24 18:29:00,
2013-10-24 13:34:00,46.0,30.7,29.85,WNW,284,6.0,21.0,55,0.00,,,0.00,Wunderground v.1.15,2013-10-24 18:34:00,
2013-10-24 13:39:00,45.3,29.2,29.85,WNW,287,8.0,21.0,53,0.00,,,0.00,Wunderground v.1.15,2013-10-24 18:39:00,
2013-10-24 13:44:00,45.5,29.3,29.85,West,271,6.0,16.0,53,0.00,,,0.00,Wunderground v.1.15,2013-10-24 18:44:00,
2013-10-24 13:49:00,45.8,30.1,29.85,NW,308,4.0,16.0,54,0.00,,,0.00,Wunderground v.1.15,2013-10-24 18:49:00,
2013-10-24 13:54:00,45.7,30.4,29.85,NW,306,13.0,17.0,55,0.00,,,0.00,Wunderground v.1.15,2013-10-24 18:54:00,
2013-10-24 13:59:00,45.2,29.1,29.85,WNW,283,3.0,17.0,53,0.00,,,0.00,Wunderground v.1.15,2013-10-24 18:59:00,
2013-10-24 14:04:00,45.1,27.6,29.85,West,281,8.0,11.0,50,0.00,,,0.00,Wunderground v.1.15,2013-10-24 19:04:00,
2013-10-24 14:09:00,45.6,28.0,29.85,WNW,297,6.0,14.0,50,0.00,,,0.00,Wunderground v.1.15,2013-10-24 19:09:00,
2013-10-24 14:14:00,45.5,29.3,29.85,West,269,3.0,13.0,53,0.00,,,0.00,Wunderground v.1.15,2013-10-24 19:14:00,
2013-10-24 14:19:00,45.9,28.3,29.86,SW,225,9.0,13.0,50,0.00,,,0.00,Wunderground v.1.15,2013-10-24 19:19:00,
2013-10-24 14:24:00,45.6,28.0,29.85,NW,313,6.0,18.0,50,0.00,,,0.00,Wunderground v.1.15,2013-10-24 19:24:00,
2013-10-24 14:29:00,45.2,28.1,29.86,NW,311,3.0,18.0,51,0.00,,,0.00,Wunderground v.1.15,2013-10-24 19:29:00,
2013-10-24 14:34:00,45.1,28.5,29.86,NNW,332,3.0,13.0,52,0.00,,,0.00,Wunderground v.1.15,2013-10-24 19:34:00,
2013-10-24 14:40:00,45.1,27.6,29.86,WNW,288,7.0,13.0,50,0.00,,,0.00,Wunderground v.1.15,2013-10-24 19:40:00,
2013-10-24 14:45:00,45.6,27.5,29.86,SW,229,4.0,11.0,49,0.00,,,0.00,Wunderground v.1.15,2013-10-24 19:45:00,
2013-10-24 14:50:00,45.7,27.1,29.86,West,266,7.0,13.0,48,0.00,,,0.00,Wunderground v.1.15,2013-10-24 19:50:00,
2013-10-24 14:55:00,46.4,27.8,29.86,NNW,332,3.0,12.0,48,0.00,,,0.00,Wunderground v.1.15,2013-10-24 19:55:00,
2013-10-24 15:00:00,46.5,27.3,29.87,NNW,333,7.0,9.0,47,0.00,,,0.00,Wunderground v.1.15,2013-10-24 20:00:00,
2013-10-24 15:05:00,46.7,26.5,29.87,WNW,295,4.0,11.0,45,0.00,,,0.00,Wunderground v.1.15,2013-10-24 20:05:00,
2013-10-24 15:10:00,46.6,26.4,29.87,NNW,329,5.0,6.0,45,0.00,,,0.00,Wunderground v.1.15,2013-10-24 20:10:00,
2013-10-24 15:15:00,46.5,25.2,29.87,WNW,292,14.0,14.0,43,0.00,,,0.00,Wunderground v.1.15,2013-10-24 20:15:00,
2013-10-24 15:20:00,46.2,24.9,29.87,NNW,337,7.0,11.0,43,0.00,,,0.00,Wunderground v.1.15,2013-10-24 20:20:00,
2013-10-24 15:25:00,46.4,24.5,29.87,West,273,11.0,14.0,42,0.00,,,0.00,Wunderground v.1.15,2013-10-24 20:25:00,
2013-10-24 15:30:00,46.3,25.0,29.87,SW,235,10.0,17.0,43,0.00,,,0.00,Wunderground v.1.15,2013-10-24 20:30:00,
2013-10-24 15:35:00,46.4,25.1,29.87,North,353,5.0,17.0,43,0.00,,,0.00,Wunderground v.1.15,2013-10-24 20:35:00,
2013-10-24 15:40:00,46.4,25.1,29.88,WSW,243,4.0,8.0,43,0.00,,,0.00,Wunderground v.1.15,2013-10-24 20:40:00,
2013-10-24 15:45:00,46.3,23.9,29.88,NW,316,3.0,13.0,41,0.00,,,0.00,Wunderground v.1.15,2013-10-24 20:45:00,
2013-10-24 15:50:00,46.5,24.0,29.88,North,10,9.0,11.0,41,0.00,,,0.00,Wunderground v.1.15,2013-10-24 20:50:00,
2013-10-24 15:55:00,46.4,23.9,29.88,WNW,301,9.0,12.0,41,0.00,,,0.00,Wunderground v.1.15,2013-10-24 20:55:00,
2013-10-24 16:00:00,46.3,23.3,29.88,NW,310,12.0,17.0,40,0.00,,,0.00,Wunderground v.1.15,2013-10-24 21:00:00,
2013-10-24 16:05:00,46.3,23.9,29.88,WNW,298,4.0,17.0,41,0.00,,,0.00,Wunderground v.1.15,2013-10-24 21:05:00,
2013-10-24 16:10:00,46.3,23.9,29.88,ENE,66,3.0,8.0,41,0.00,,,0.00,Wunderground v.1.15,2013-10-24 21:10:00,
2013-10-24 16:15:00,46.3,23.9,29.89,NW,305,7.0,17.0,41,0.00,,,0.00,Wunderground v.1.15,2013-10-24 21:15:00,
2013-10-24 16:20:00,46.0,24.2,29.89,NW,319,8.0,8.0,42,0.00,,,0.00,Wunderground v.1.15,2013-10-24 21:20:00,
2013-10-24 16:25:00,46.1,24.3,29.89,NW,311,13.0,14.0,42,0.00,,,0.00,Wunderground v.1.15,2013-10-24 21:25:00,
2013-10-24 16:30:00,46.1,24.3,29.89,West,263,10.0,11.0,42,0.00,,,0.00,Wunderground v.1.15,2013-10-24 21:30:00,
2013-10-24 16:35:00,46.0,24.7,29.89,NW,319,8.0,17.0,43,0.00,,,0.00,Wunderground v.1.15,2013-10-24 21:35:00,
2013-10-24 16:40:00,46.0,24.2,29.89,NW,307,6.0,8.0,42,0.00,,,0.00,Wunderground v.1.15,2013-10-24 21:40:00,
2013-10-24 16:45:00,46.2,24.9,29.89,WNW,301,2.0,11.0,43,0.00,,,0.00,Wunderground v.1.15,2013-10-24 21:45:00,
2013-10-24 16:50:00,46.1,24.3,29.89,NNW,329,5.0,8.0,42,0.00,,,0.00,Wunderground v.1.15,2013-10-24 21:50:00,
2013-10-24 16:55:00,45.9,24.6,29.89,WNW,295,7.0,16.0,43,0.00,,,0.00,Wunderground v.1.15,2013-10-24 21:55:00,
2013-10-24 17:00:00,45.8,24.5,29.89,SE,135,7.0,11.0,43,0.00,,,0.00,Wunderground v.1.15,2013-10-24 22:00:00,
2013-10-24 17:05:00,45.8,24.5,29.89,WNW,290,5.0,12.0,43,0.00,,,0.00,Wunderground v.1.15,2013-10-24 22:05:00,
2013-10-24 17:10:00,45.7,24.5,29.89,NNW,329,9.0,15.0,43,0.00,,,0.00,Wunderground v.1.15,2013-10-24 22:10:00,
2013-10-24 17:15:00,45.5,24.3,29.90,NW,311,8.0,18.0,43,0.00,,,0.00,Wunderground v.1.15,2013-10-24 22:15:00,
2013-10-24 17:20:00,45.4,24.2,29.90,NW,311,9.0,15.0,43,0.00,,,0.00,Wunderground v.1.15,2013-10-24 22:20:00,
2013-10-24 17:25:00,45.2,23.4,29.90,NW,317,5.0,15.0,42,0.00,,,0.00,Wunderground v.1.15,2013-10-24 22:25:00,
2013-10-24 17:30:00,45.1,23.9,29.90,WNW,288,8.0,11.0,43,0.00,,,0.00,Wunderground v.1.15,2013-10-24 22:30:00,
2013-10-24 17:35:00,45.1,24.5,29.90,WNW,303,7.0,11.0,44,0.00,,,0.00,Wunderground v.1.15,2013-10-24 22:35:00,
2013-10-24 17:40:00,44.9,24.3,29.90,NW,307,6.0,9.0,44,0.00,,,0.00,Wunderground v.1.15,2013-10-24 22:40:00,
2013-10-24 17:45:00,44.6,24.0,29.90,NW,306,7.0,11.0,44,0.00,,,0.00,Wunderground v.1.15,2013-10-24 22:45:00,
2013-10-24 17:50:00,44.4,24.4,29.90,NW,313,8.0,10.0,45,0.00,,,0.00,Wunderground v.1.15,2013-10-24 22:50:00,
2013-10-24 17:55:00,44.2,24.7,29.91,NW,323,6.0,10.0,46,0.00,,,0.00,Wunderground v.1.15,2013-10-24 22:55:00,
2013-10-24 18:00:00,44.0,25.0,29.91,NW,311,6.0,10.0,47,0.00,,,0.00,Wunderground v.1.15,2013-10-24 23:00:00,
2013-10-24 18:05:00,43.9,24.9,29.91,NW,316,7.0,10.0,47,0.00,,,0.00,Wunderground v.1.15,2013-10-24 23:05:00,
2013-10-24 18:10:00,43.7,25.3,29.91,NNW,337,9.0,11.0,48,0.00,,,0.00,Wunderground v.1.15,2013-10-24 23:10:00,
2013-10-24 18:15:00,43.6,25.7,29.91,West,281,5.0,11.0,49,0.00,,,0.00,Wunderground v.1.15,2013-10-24 23:15:00,
2013-10-24 18:20:00,43.4,25.0,29.91,North,6,3.0,6.0,48,0.00,,,0.00,Wunderground v.1.15,2013-10-24 23:20:00,
2013-10-24 18:26:00,43.2,25.8,29.91,NNW,342,3.0,8.0,50,0.00,,,0.00,Wunderground v.1.15,2013-10-24 23:26:00,
2013-10-24 18:31:00,43.0,26.1,29.91,NW,321,6.0,7.0,51,0.00,,,0.00,Wunderground v.1.15,2013-10-24 23:31:00,
2013-10-24 18:36:00,42.9,26.9,29.91,NW,322,6.0,10.0,53,0.00,,,0.00,Wunderground v.1.15,2013-10-24 23:36:00,
2013-10-24 18:41:00,42.8,26.4,29.92,NNW,329,5.0,7.0,52,0.00,,,0.00,Wunderground v.1.15,2013-10-24 23:41:00,
2013-10-24 18:46:00,42.6,26.6,29.92,NW,322,5.0,7.0,53,0.00,,,0.00,Wunderground v.1.15,2013-10-24 23:46:00,
2013-10-24 18:51:00,42.3,26.8,29.92,NW,314,2.0,4.0,54,0.00,,,0.00,Wunderground v.1.15,2013-10-24 23:51:00,
2013-10-24 18:56:00,42.3,27.3,29.92,WNW,297,0.0,6.0,55,0.00,,,0.00,Wunderground v.1.15,2013-10-24 23:56:00,
2013-10-24 19:01:00,42.1,27.1,29.92,North,350,3.0,3.0,55,0.00,,,0.00,Wunderground v.1.15,2013-10-25 00:01:00,
2013-10-24 19:06:00,42.0,27.0,29.92,WNW,302,2.0,6.0,55,0.00,,,0.00,Wunderground v.1.15,2013-10-25 00:06:00,
2013-10-24 19:11:00,41.9,26.9,29.93,NNW,338,6.0,6.0,55,0.00,,,0.00,Wunderground v.1.15,2013-10-25 00:11:00,
2013-10-24 19:16:00,41.7,27.1,29.93,North,349,3.0,6.0,56,0.00,,,0.00,Wunderground v.1.15,2013-10-25 00:16:00,
2013-10-24 19:21:00,41.5,27.4,29.93,West,278,4.0,5.0,57,0.00,,,0.00,Wunderground v.1.15,2013-10-25 00:21:00,
2013-10-24 19:26:00,41.5,27.4,29.93,NNW,328,4.0,8.0,57,0.00,,,0.00,Wunderground v.1.15,2013-10-25 00:26:00,
2013-10-24 19:31:00,41.3,27.6,29.93,NW,309,1.0,4.0,58,0.00,,,0.00,Wunderground v.1.15,2013-10-25 00:31:00,
2013-10-24 19:36:00,41.2,27.5,29.93,NW,326,3.0,8.0,58,0.00,,,0.00,Wunderground v.1.15,2013-10-25 00:36:00,
2013-10-24 19:41:00,41.0,27.3,29.94,NNW,331,6.0,6.0,58,0.00,,,0.00,Wunderground v.1.15,2013-10-25 00:41:00,
2013-10-24 19:46:00,40.8,27.2,29.94,NNW,328,4.0,6.0,58,0.00,,,0.00,Wunderground v.1.15,2013-10-25 00:46:00,
2013-10-24 19:51:00,40.5,27.3,29.94,NW,309,3.0,4.0,59,0.00,,,0.00,Wunderground v.1.15,2013-10-25 00:51:00,
2013-10-24 19:56:00,40.5,27.3,29.94,NW,319,1.0,5.0,59,0.00,,,0.00,Wunderground v.1.15,2013-10-25 00:56:00,
2013-10-24 20:01:00,40.5,27.3,29.94,NW,314,3.0,7.0,59,0.00,,,0.00,Wunderground v.1.15,2013-10-25 01:01:00,
2013-10-24 20:06:00,40.5,27.3,29.95,NW,315,6.0,8.0,59,0.00,,,0.00,Wunderground v.1.15,2013-10-25 01:06:00,
2013-10-24 20:11:00,40.4,27.2,29.95,ENE,68,4.0,6.0,59,0.00,,,0.00,Wunderground v.1.15,2013-10-25 01:11:00,
2013-10-24 20:16:00,40.2,27.4,29.95,NW,316,2.0,6.0,60,0.00,,,0.00,Wunderground v.1.15,2013-10-25 01:16:00,
2013-10-24 20:21:00,40.1,27.3,29.95,NW,314,0.0,4.0,60,0.00,,,0.00,Wunderground v.1.15,2013-10-25 01:21:00,
2013-10-24 20:26:00,39.8,27.4,29.95,NNE,13,4.0,6.0,61,0.00,,,0.00,Wunderground v.1.15,2013-10-25 01:26:00,
2013-10-24 20:32:00,39.6,27.6,29.96,NW,326,4.0,5.0,62,0.00,,,0.00,Wunderground v.1.15,2013-10-25 01:32:00,
2013-10-24 20:37:00,39.4,27.1,29.96,NW,309,0.0,5.0,61,0.00,,,0.00,Wunderground v.1.15,2013-10-25 01:37:00,
2013-10-24 20:42:00,39.4,27.1,29.96,NNW,335,3.0,9.0,61,0.00,,,0.00,Wunderground v.1.15,2013-10-25 01:42:00,
2013-10-24 20:47:00,39.5,27.5,29.96,NW,312,6.0,9.0,62,0.00,,,0.00,Wunderground v.1.15,2013-10-25 01:47:00,
2013-10-24 20:52:00,39.4,27.5,29.97,NW,307,6.0,10.0,62,0.00,,,0.00,Wunderground v.1.15,2013-10-25 01:52:00,
2013-10-24 20:57:00,39.1,27.6,29.96,NNW,346,7.0,10.0,63,0.00,,,0.00,Wunderground v.1.15,2013-10-25 01:57:00,
2013-10-24 21:02:00,38.9,27.8,29.97,NW,316,2.0,6.0,64,0.00,,,0.00,Wunderground v.1.15,2013-10-25 02:02:00,
2013-10-24 21:07:00,38.7,27.6,29.97,NW,319,4.0,8.0,64,0.00,,,0.00,Wunderground v.1.15,2013-10-25 02:07:00,
2013-10-24 21:12:00,38.5,27.7,29.98,NNW,338,2.0,6.0,65,0.00,,,0.00,Wunderground v.1.15,2013-10-25 02:12:00,
2013-10-24 21:17:00,38.4,27.3,29.98,NNW,345,4.0,9.0,64,0.00,,,0.00,Wunderground v.1.15,2013-10-25 02:17:00,
2013-10-24 21:22:00,38.3,27.2,29.98,NW,312,4.0,11.0,64,0.00,,,0.00,Wunderground v.1.15,2013-10-25 02:22:00,
2013-10-24 21:27:00,38.1,27.0,29.98,NNW,335,4.0,11.0,64,0.00,,,0.00,Wunderground v.1.15,2013-10-25 02:27:00,
2013-10-24 21:32:00,38.0,26.9,29.98,NW,326,4.0,8.0,64,0.00,,,0.00,Wunderground v.1.15,2013-10-25 02:32:00,
2013-10-24 21:37:00,37.8,26.7,29.99,NW,314,4.0,8.0,64,0.00,,,0.00,Wunderground v.1.15,2013-10-25 02:37:00,
2013-10-24 21:42:00,37.7,27.0,29.99,WNW,290,2.0,6.0,65,0.00,,,0.00,Wunderground v.1.15,2013-10-25 02:42:00,
2013-10-24 21:47:00,37.5,26.8,29.99,NNW,328,3.0,7.0,65,0.00,,,0.00,Wunderground v.1.15,2013-10-25 02:47:00,
2013-10-24 21:52:00,37.4,27.1,29.99,WSW,256,1.0,5.0,66,0.00,,,0.00,Wunderground v.1.15,2013-10-25 02:52:00,
2013-10-24 21:57:00,37.3,27.7,30.00,NE,40,1.0,5.0,68,0.00,,,0.00,Wunderground v.1.15,2013-10-25 02:57:00,
2013-10-24 22:02:00,37.3,27.3,30.00,WNW,301,1.0,6.0,67,0.00,,,0.00,Wunderground v.1.15,2013-10-25 03:02:00,
2013-10-24 22:07:00,37.2,27.2,30.00,NW,323,1.0,6.0,67,0.00,,,0.00,Wunderground v.1.15,2013-10-25 03:07:00,
2013-10-24 22:12:00,37.1,27.5,30.00,WNW,283,2.0,5.0,68,0.00,,,0.00,Wunderground v.1.15,2013-10-25 03:12:00,
2013-10-24 22:17:00,37.0,27.8,30.00,NW,316,1.0,5.0,69,0.00,,,0.00,Wunderground v.1.15,2013-10-25 03:17:00,
2013-10-24 22:22:00,36.8,27.6,30.00,NW,316,3.0,5.0,69,0.00,,,0.00,Wunderground v.1.15,2013-10-25 03:22:00,
2013-10-24 22:27:00,36.6,27.7,30.00,WNW,295,1.0,6.0,70,0.00,,,0.00,Wunderground v.1.15,2013-10-25 03:27:00,
2013-10-24 22:32:00,36.6,27.7,30.01,NNW,345,7.0,7.0,70,0.00,,,0.00,Wunderground v.1.15,2013-10-25 03:32:00,
2013-10-24 22:38:00,36.5,27.3,30.01,NE,47,2.0,7.0,69,0.00,,,0.00,Wunderground v.1.15,2013-10-25 03:38:00,
2013-10-24 22:43:00,36.7,27.1,30.00,NW,316,4.0,6.0,68,0.00,,,0.00,Wunderground v.1.15,2013-10-25 03:43:00,
2013-10-24 22:48:00,36.7,27.5,30.01,NW,321,2.0,6.0,69,0.00,,,0.00,Wunderground v.1.15,2013-10-25 03:48:00,
2013-10-24 22:53:00,36.6,27.0,30.01,NW,305,5.0,5.0,68,0.00,,,0.00,Wunderground v.1.15,2013-10-25 03:53:00,
2013-10-24 22:58:00,36.5,26.9,30.01,NW,316,4.0,6.0,68,0.00,,,0.00,Wunderground v.1.15,2013-10-25 03:58:00,
2013-10-24 23:01:00,36.3,27.1,30.01,NW,322,2.0,3.0,69,0.00,,,0.00,Wunderground v.1.15,2013-10-25 04:01:00,
2013-10-24 23:06:00,36.3,27.1,30.01,NNW,331,1.0,5.0,69,0.00,,,0.00,Wunderground v.1.15,2013-10-25 04:06:00,
2013-10-24 23:11:00,36.1,27.3,30.01,NNE,33,0.0,2.0,70,0.00,,,0.00,Wunderground v.1.15,2013-10-25 04:11:00,
2013-10-24 23:17:00,35.9,26.7,30.01,WNW,296,3.0,6.0,69,0.00,,,0.00,Wunderground v.1.15,2013-10-25 04:17:00,
2013-10-24 23:22:00,36.0,26.5,30.01,NW,318,2.0,5.0,68,0.00,,,0.00,Wunderground v.1.15,2013-10-25 04:22:00,
2013-10-24 23:27:00,36.2,26.3,30.01,NW,322,1.0,7.0,67,0.00,,,0.00,Wunderground v.1.15,2013-10-25 04:27:00,
2013-10-24 23:32:00,36.2,25.9,30.02,NNW,328,3.0,5.0,66,0.00,,,0.00,Wunderground v.1.15,2013-10-25 04:32:00,
2013-10-24 23:37:00,36.4,26.5,30.02,NNW,335,3.0,5.0,67,0.00,,,0.00,Wunderground v.1.15,2013-10-25 04:37:00,
2013-10-24 23:42:00,36.4,26.8,30.02,NW,318,2.0,5.0,68,0.00,,,0.00,Wunderground v.1.15,2013-10-25 04:42:00,
2013-10-24 23:47:00,36.3,26.4,30.02,NW,311,6.0,8.0,67,0.00,,,0.00,Wunderground v.1.15,2013-10-25 04:47:00,
2013-10-24 23:52:00,36.2,26.6,30.02,NW,314,5.0,7.0,68,0.00,,,0.00,Wunderground v.1.15,2013-10-25 04:52:00,
2013-10-24 23:57:00,36.2,26.3,30.02,NW,323,3.0,8.0,67,0.00,,,0.00,Wunderground v.1.15,2013-10-25 04:57:00,